sensor_id;sensor_type;location;lat;lon;timestamp;pressure;altitude;pressure_sealevel;temperature
41710;BMP280;59402;48.396;-4.472;2022-07-29T00:00:00;100743.59;;;19.81
41710;BMP280;59402;48.396;-4.472;2022-07-29T00:02:26;100742.00;;;19.80
41710;BMP280;59402;48.396;-4.472;2022-07-29T00:04:52;100732.41;;;19.66
41710;BMP280;59402;48.396;-4.472;2022-07-29T00:07:18;100733.56;;;19.63
41710;BMP280;59402;48.396;-4.472;2022-07-29T00:09:43;100725.53;;;19.58
41710;BMP280;59402;48.396;-4.472;2022-07-29T00:12:09;100728.47;;;19.55
41710;BMP280;59402;48.396;-4.472;2022-07-29T00:14:34;100730.28;;;19.55
41710;BMP280;59402;48.396;-4.472;2022-07-29T00:17:00;100723.19;;;19.49
41710;BMP280;59402;48.396;-4.472;2022-07-29T00:19:25;100717.28;;;19.55
41710;BMP280;59402;48.396;-4.472;2022-07-29T00:21:51;100718.91;;;19.56
41710;BMP280;59402;48.396;-4.472;2022-07-29T00:24:16;100717.91;;;19.57
41710;BMP280;59402;48.396;-4.472;2022-07-29T00:26:41;100713.28;;;19.52
41710;BMP280;59402;48.396;-4.472;2022-07-29T00:29:07;100709.88;;;19.52
41710;BMP280;59402;48.396;-4.472;2022-07-29T00:31:32;100717.03;;;19.50
41710;BMP280;59402;48.396;-4.472;2022-07-29T00:33:58;100712.47;;;19.52
41710;BMP280;59402;48.396;-4.472;2022-07-29T00:36:23;100708.88;;;19.53
41710;BMP280;59402;48.396;-4.472;2022-07-29T00:38:50;100720.50;;;19.57
41710;BMP280;59402;48.396;-4.472;2022-07-29T00:41:17;100716.91;;;19.58
41710;BMP280;59402;48.396;-4.472;2022-07-29T00:43:43;100728.69;;;19.54
41710;BMP280;59402;48.396;-4.472;2022-07-29T00:46:09;100716.50;;;19.54
41710;BMP280;59402;48.396;-4.472;2022-07-29T00:48:34;100721.22;;;19.51
41710;BMP280;59402;48.396;-4.472;2022-07-29T00:51:02;100710.22;;;19.49
41710;BMP280;59402;48.396;-4.472;2022-07-29T00:53:30;100717.22;;;19.48
41710;BMP280;59402;48.396;-4.472;2022-07-29T00:55:56;100713.63;;;19.49
41710;BMP280;59402;48.396;-4.472;2022-07-29T00:58:22;100713.19;;;19.46
41710;BMP280;59402;48.396;-4.472;2022-07-29T01:00:47;100714.38;;;19.44
41710;BMP280;59402;48.396;-4.472;2022-07-29T01:03:13;100710.59;;;19.32
41710;BMP280;59402;48.396;-4.472;2022-07-29T01:05:40;100710.59;;;19.32
41710;BMP280;59402;48.396;-4.472;2022-07-29T01:08:06;100708.09;;;19.24
41710;BMP280;59402;48.396;-4.472;2022-07-29T01:10:32;100709.91;;;19.23
41710;BMP280;59402;48.396;-4.472;2022-07-29T01:12:58;100704.97;;;19.28
41710;BMP280;59402;48.396;-4.472;2022-07-29T01:15:25;100713.56;;;19.29
41710;BMP280;59402;48.396;-4.472;2022-07-29T01:21:02;100693.69;;;19.21
41710;BMP280;59402;48.396;-4.472;2022-07-29T01:23:56;100703.47;;;19.19
41710;BMP280;59402;48.396;-4.472;2022-07-29T01:29:49;100688.97;;;19.11
41710;BMP280;59402;48.396;-4.472;2022-07-29T01:32:19;100675.75;;;19.06
41710;BMP280;59402;48.396;-4.472;2022-07-29T01:37:34;100683.88;;;19.03
41710;BMP280;59402;48.396;-4.472;2022-07-29T01:40:03;100678.41;;;18.98
41710;BMP280;59402;48.396;-4.472;2022-07-29T01:42:36;100684.56;;;18.97
41710;BMP280;59402;48.396;-4.472;2022-07-29T01:47:40;100685.56;;;18.96
41710;BMP280;59402;48.396;-4.472;2022-07-29T01:50:10;100678.84;;;18.87
41710;BMP280;59402;48.396;-4.472;2022-07-29T01:52:53;100675.16;;;18.81
41710;BMP280;59402;48.396;-4.472;2022-07-29T01:55:22;100671.59;;;18.82
41710;BMP280;59402;48.396;-4.472;2022-07-29T01:57:49;100665.31;;;18.77
41710;BMP280;59402;48.396;-4.472;2022-07-29T02:00:15;100655.41;;;18.66
41710;BMP280;59402;48.396;-4.472;2022-07-29T02:02:43;100653.06;;;18.71
41710;BMP280;59402;48.396;-4.472;2022-07-29T02:05:11;100647.25;;;18.69
41710;BMP280;59402;48.396;-4.472;2022-07-29T02:07:38;100650.91;;;18.60
41710;BMP280;59402;48.396;-4.472;2022-07-29T02:10:06;100642.03;;;18.55
41710;BMP280;59402;48.396;-4.472;2022-07-29T02:12:33;100634.16;;;18.48
41710;BMP280;59402;48.396;-4.472;2022-07-29T02:15:02;100633.91;;;18.43
41710;BMP280;59402;48.396;-4.472;2022-07-29T02:17:32;100627.94;;;18.43
41710;BMP280;59402;48.396;-4.472;2022-07-29T02:20:00;100628.00;;;18.35
41710;BMP280;59402;48.396;-4.472;2022-07-29T02:22:29;100620.59;;;18.32
41710;BMP280;59402;48.396;-4.472;2022-07-29T02:24:55;100617.69;;;18.27
41710;BMP280;59402;48.396;-4.472;2022-07-29T02:27:23;100614.03;;;18.22
41710;BMP280;59402;48.396;-4.472;2022-07-29T02:29:51;100606.34;;;18.14
41710;BMP280;59402;48.396;-4.472;2022-07-29T02:32:17;100602.84;;;18.07
41710;BMP280;59402;48.396;-4.472;2022-07-29T02:34:43;100597.69;;;17.99
41710;BMP280;59402;48.396;-4.472;2022-07-29T02:37:11;100596.44;;;17.95
41710;BMP280;59402;48.396;-4.472;2022-07-29T02:39:39;100582.41;;;17.90
41710;BMP280;59402;48.396;-4.472;2022-07-29T02:42:08;100579.19;;;17.88
41710;BMP280;59402;48.396;-4.472;2022-07-29T02:44:35;100578.56;;;17.86
41710;BMP280;59402;48.396;-4.472;2022-07-29T02:47:02;100576.13;;;17.84
41710;BMP280;59402;48.396;-4.472;2022-07-29T02:55:02;100558.94;;;17.69
41710;BMP280;59402;48.396;-4.472;2022-07-29T02:57:36;100558.13;;;17.69
41710;BMP280;59402;48.396;-4.472;2022-07-29T03:00:07;100553.28;;;17.66
41710;BMP280;59402;48.396;-4.472;2022-07-29T03:02:36;100546.16;;;17.68
41710;BMP280;59402;48.396;-4.472;2022-07-29T03:05:04;100554.09;;;17.66
41710;BMP280;59402;48.396;-4.472;2022-07-29T03:07:30;100546.84;;;17.62
41710;BMP280;59402;48.396;-4.472;2022-07-29T03:09:57;100528.41;;;17.65
41710;BMP280;59402;48.396;-4.472;2022-07-29T03:12:23;100524.53;;;17.61
41710;BMP280;59402;48.396;-4.472;2022-07-29T03:14:49;100516.31;;;17.57
41710;BMP280;59402;48.396;-4.472;2022-07-29T03:17:15;100505.31;;;17.55
41710;BMP280;59402;48.396;-4.472;2022-07-29T03:19:42;100509.88;;;17.53
41710;BMP280;59402;48.396;-4.472;2022-07-29T03:22:08;100499.00;;;17.58
41710;BMP280;59402;48.396;-4.472;2022-07-29T03:24:35;100501.78;;;17.56
41710;BMP280;59402;48.396;-4.472;2022-07-29T03:27:01;100497.09;;;17.52
41710;BMP280;59402;48.396;-4.472;2022-07-29T03:29:27;100486.47;;;17.47
41710;BMP280;59402;48.396;-4.472;2022-07-29T03:31:53;100473.78;;;17.52
41710;BMP280;59402;48.396;-4.472;2022-07-29T03:34:19;100482.72;;;17.49
41710;BMP280;59402;48.396;-4.472;2022-07-29T03:36:44;100477.00;;;17.54
41710;BMP280;59402;48.396;-4.472;2022-07-29T03:39:11;100484.16;;;17.52
41710;BMP280;59402;48.396;-4.472;2022-07-29T03:41:38;100482.91;;;17.48
41710;BMP280;59402;48.396;-4.472;2022-07-29T03:44:05;100478.19;;;17.51
41710;BMP280;59402;48.396;-4.472;2022-07-29T03:46:33;100472.19;;;17.51
41710;BMP280;59402;48.396;-4.472;2022-07-29T03:49:01;100478.97;;;17.52
41710;BMP280;59402;48.396;-4.472;2022-07-29T03:51:28;100476.06;;;17.55
41710;BMP280;59402;48.396;-4.472;2022-07-29T03:53:54;100485.59;;;17.54
41710;BMP280;59402;48.396;-4.472;2022-07-29T03:56:21;100482.72;;;17.49
41710;BMP280;59402;48.396;-4.472;2022-07-29T03:58:48;100470.66;;;17.42
41710;BMP280;59402;48.396;-4.472;2022-07-29T04:01:15;100475.22;;;17.40
41710;BMP280;59402;48.396;-4.472;2022-07-29T04:03:43;100468.75;;;17.36
41710;BMP280;59402;48.396;-4.472;2022-07-29T04:06:10;100460.25;;;17.28
41710;BMP280;59402;48.396;-4.472;2022-07-29T04:08:36;100451.97;;;17.32
41710;BMP280;59402;48.396;-4.472;2022-07-29T04:11:02;100458.78;;;17.33
41710;BMP280;59402;48.396;-4.472;2022-07-29T04:13:28;100462.31;;;17.32
41710;BMP280;59402;48.396;-4.472;2022-07-29T04:15:53;100457.16;;;17.32
41710;BMP280;59402;48.396;-4.472;2022-07-29T04:18:19;100458.94;;;17.32
41710;BMP280;59402;48.396;-4.472;2022-07-29T04:20:44;100458.31;;;17.30
41710;BMP280;59402;48.396;-4.472;2022-07-29T04:23:10;100466.72;;;17.32
41710;BMP280;59402;48.396;-4.472;2022-07-29T04:25:39;100464.75;;;17.34
41710;BMP280;59402;48.396;-4.472;2022-07-29T04:28:06;100463.94;;;17.33
41710;BMP280;59402;48.396;-4.472;2022-07-29T04:30:32;100463.66;;;17.28
41710;BMP280;59402;48.396;-4.472;2022-07-29T04:32:59;100456.25;;;17.25
41710;BMP280;59402;48.396;-4.472;2022-07-29T04:35:26;100447.50;;;17.26
41710;BMP280;59402;48.396;-4.472;2022-07-29T04:37:52;100452.84;;;17.25
41710;BMP280;59402;48.396;-4.472;2022-07-29T04:40:18;100448.19;;;17.20
41710;BMP280;59402;48.396;-4.472;2022-07-29T04:42:43;100431.97;;;17.26
41710;BMP280;59402;48.396;-4.472;2022-07-29T04:45:09;100430.38;;;17.25
41710;BMP280;59402;48.396;-4.472;2022-07-29T04:47:35;100422.94;;;17.22
41710;BMP280;59402;48.396;-4.472;2022-07-29T04:50:01;100414.91;;;17.17
41710;BMP280;59402;48.396;-4.472;2022-07-29T04:52:26;100407.94;;;17.18
41710;BMP280;59402;48.396;-4.472;2022-07-29T04:54:52;100403.59;;;17.18
41710;BMP280;59402;48.396;-4.472;2022-07-29T04:57:17;100386.72;;;17.22
41710;BMP280;59402;48.396;-4.472;2022-07-29T04:59:43;100378.63;;;17.25
41710;BMP280;59402;48.396;-4.472;2022-07-29T05:02:09;100369.88;;;17.26
41710;BMP280;59402;48.396;-4.472;2022-07-29T05:04:35;100358.72;;;17.26
41710;BMP280;59402;48.396;-4.472;2022-07-29T05:07:00;100345.78;;;17.26
41710;BMP280;59402;48.396;-4.472;2022-07-29T05:09:26;100338.66;;;17.28
41710;BMP280;59402;48.396;-4.472;2022-07-29T05:11:52;100345.78;;;17.26
41710;BMP280;59402;48.396;-4.472;2022-07-29T05:14:20;100345.63;;;17.27
41710;BMP280;59402;48.396;-4.472;2022-07-29T05:16:45;100343.38;;;17.24
41710;BMP280;59402;48.396;-4.472;2022-07-29T05:19:11;100343.56;;;17.23
41710;BMP280;59402;48.396;-4.472;2022-07-29T05:21:36;100349.38;;;17.25
41710;BMP280;59402;48.396;-4.472;2022-07-29T05:24:02;100355.16;;;17.27
41710;BMP280;59402;48.396;-4.472;2022-07-29T05:26:28;100354.63;;;17.31
41710;BMP280;59402;48.396;-4.472;2022-07-29T05:28:54;100367.16;;;17.42
41710;BMP280;59402;48.396;-4.472;2022-07-29T05:31:23;100380.97;;;17.49
41710;BMP280;59402;48.396;-4.472;2022-07-29T05:33:48;100398.72;;;17.52
41710;BMP280;59402;48.396;-4.472;2022-07-29T05:36:14;100410.63;;;17.61
41710;BMP280;59402;48.396;-4.472;2022-07-29T05:38:40;100436.22;;;17.56
41710;BMP280;59402;48.396;-4.472;2022-07-29T05:41:06;100435.25;;;17.57
41710;BMP280;59402;48.396;-4.472;2022-07-29T05:43:32;100439.44;;;17.58
41710;BMP280;59402;48.396;-4.472;2022-07-29T05:45:57;100443.66;;;17.59
41710;BMP280;59402;48.396;-4.472;2022-07-29T05:48:23;100442.66;;;17.60
41710;BMP280;59402;48.396;-4.472;2022-07-29T05:50:49;100422.25;;;17.65
41710;BMP280;59402;48.396;-4.472;2022-07-29T05:53:14;100428.75;;;17.75
41710;BMP280;59402;48.396;-4.472;2022-07-29T05:55:40;100435.19;;;17.79
41710;BMP280;59402;48.396;-4.472;2022-07-29T05:58:06;100442.31;;;17.77
41710;BMP280;59402;48.396;-4.472;2022-07-29T06:00:31;100448.66;;;17.74
41710;BMP280;59402;48.396;-4.472;2022-07-29T06:02:57;100441.44;;;17.70
41710;BMP280;59402;48.396;-4.472;2022-07-29T06:05:22;100444.81;;;17.71
41710;BMP280;59402;48.396;-4.472;2022-07-29T06:07:48;100446.78;;;17.69
41710;BMP280;59402;48.396;-4.472;2022-07-29T06:10:13;100433.50;;;17.72
41710;BMP280;59402;48.396;-4.472;2022-07-29T06:12:39;100441.19;;;17.79
41710;BMP280;59402;48.396;-4.472;2022-07-29T06:15:05;100443.06;;;17.85
41710;BMP280;59402;48.396;-4.472;2022-07-29T06:17:31;100441.53;;;17.91
41710;BMP280;59402;48.396;-4.472;2022-07-29T06:19:57;100462.19;;;17.99
41710;BMP280;59402;48.396;-4.472;2022-07-29T06:22:22;100461.78;;;18.09
41710;BMP280;59402;48.396;-4.472;2022-07-29T06:24:47;100481.97;;;18.14
41710;BMP280;59402;48.396;-4.472;2022-07-29T06:27:13;100496.09;;;18.26
41710;BMP280;59402;48.396;-4.472;2022-07-29T06:29:39;100508.50;;;18.30
41710;BMP280;59402;48.396;-4.472;2022-07-29T06:32:04;100530.22;;;18.43
41710;BMP280;59402;48.396;-4.472;2022-07-29T06:34:30;100543.09;;;18.51
41710;BMP280;59402;48.396;-4.472;2022-07-29T06:36:55;100563.91;;;18.58
41710;BMP280;59402;48.396;-4.472;2022-07-29T06:39:21;100569.81;;;18.66
41710;BMP280;59402;48.396;-4.472;2022-07-29T06:41:49;100588.38;;;18.84
41710;BMP280;59402;48.396;-4.472;2022-07-29T06:44:16;100613.00;;;18.88
41710;BMP280;59402;48.396;-4.472;2022-07-29T06:46:43;100625.16;;;18.87
41710;BMP280;59402;48.396;-4.472;2022-07-29T06:49:09;100632.41;;;18.92
41710;BMP280;59402;48.396;-4.472;2022-07-29T06:51:35;100657.56;;;19.06
41710;BMP280;59402;48.396;-4.472;2022-07-29T06:54:01;100673.94;;;19.06
41710;BMP280;59402;48.396;-4.472;2022-07-29T06:56:31;100692.44;;;19.17
41710;BMP280;59402;48.396;-4.472;2022-07-29T06:58:56;100704.97;;;19.28
41710;BMP280;59402;48.396;-4.472;2022-07-29T07:01:22;100716.25;;;19.35
41710;BMP280;59402;48.396;-4.472;2022-07-29T07:03:48;100726.16;;;19.46
41710;BMP280;59402;48.396;-4.472;2022-07-29T07:06:13;100743.44;;;19.53
41710;BMP280;59402;48.396;-4.472;2022-07-29T07:08:38;100767.72;;;19.60
41710;BMP280;59402;48.396;-4.472;2022-07-29T07:11:04;100766.97;;;19.66
41710;BMP280;59402;48.396;-4.472;2022-07-29T07:13:31;100782.63;;;19.73
41710;BMP280;59402;48.396;-4.472;2022-07-29T07:16:01;100776.00;;;19.84
41710;BMP280;59402;48.396;-4.472;2022-07-29T07:18:26;100794.72;;;19.94
41710;BMP280;59402;48.396;-4.472;2022-07-29T07:20:52;100799.81;;;20.02
41710;BMP280;59402;48.396;-4.472;2022-07-29T07:23:18;100803.84;;;20.05
41710;BMP280;59402;48.396;-4.472;2022-07-29T07:25:43;100810.09;;;20.10
41710;BMP280;59402;48.396;-4.472;2022-07-29T07:28:09;100814.56;;;20.16
41710;BMP280;59402;48.396;-4.472;2022-07-29T07:30:34;100835.16;;;20.17
41710;BMP280;59402;48.396;-4.472;2022-07-29T07:33:00;100845.19;;;20.20
41710;BMP280;59402;48.396;-4.472;2022-07-29T07:35:26;100847.03;;;20.41
41710;BMP280;59402;48.396;-4.472;2022-07-29T07:37:54;100837.22;;;21.32
41710;BMP280;59402;48.396;-4.472;2022-07-29T07:40:19;100855.78;;;21.83
41710;BMP280;59402;48.396;-4.472;2022-07-29T07:42:45;100870.06;;;22.40
41710;BMP280;59402;48.396;-4.472;2022-07-29T07:45:11;100896.59;;;22.82
41710;BMP280;59402;48.396;-4.472;2022-07-29T07:47:37;100905.31;;;23.08
41710;BMP280;59402;48.396;-4.472;2022-07-29T07:50:08;100911.94;;;23.23
41710;BMP280;59402;48.396;-4.472;2022-07-29T07:52:34;100916.75;;;23.33
41710;BMP280;59402;48.396;-4.472;2022-07-29T07:54:59;100921.56;;;23.48
41710;BMP280;59402;48.396;-4.472;2022-07-29T07:57:25;100933.66;;;23.56
41710;BMP280;59402;48.396;-4.472;2022-07-29T07:59:51;100933.22;;;23.59
41710;BMP280;59402;48.396;-4.472;2022-07-29T08:02:16;100943.88;;;23.64
41710;BMP280;59402;48.396;-4.472;2022-07-29T08:04:41;100943.25;;;23.68
41710;BMP280;59402;48.396;-4.472;2022-07-29T08:07:07;100944.66;;;23.83
41710;BMP280;59402;48.396;-4.472;2022-07-29T08:09:34;100941.28;;;23.57
41710;BMP280;59402;48.396;-4.472;2022-07-29T08:12:00;100949.91;;;23.26
41710;BMP280;59402;48.396;-4.472;2022-07-29T08:14:29;100952.06;;;22.97
41710;BMP280;59402;48.396;-4.472;2022-07-29T08:16:55;100951.69;;;22.87
41710;BMP280;59402;48.396;-4.472;2022-07-29T08:19:21;100952.41;;;22.74
41710;BMP280;59402;48.396;-4.472;2022-07-29T08:21:46;100956.97;;;22.47
41710;BMP280;59402;48.396;-4.472;2022-07-29T08:24:12;100953.72;;;22.38
41710;BMP280;59402;48.396;-4.472;2022-07-29T08:26:56;100954.28;;;22.28
41710;BMP280;59402;48.396;-4.472;2022-07-29T08:29:21;100959.28;;;22.29
41710;BMP280;59402;48.396;-4.472;2022-07-29T08:31:47;100961.28;;;22.27
41710;BMP280;59402;48.396;-4.472;2022-07-29T08:34:12;100957.09;;;22.32
41710;BMP280;59402;48.396;-4.472;2022-07-29T08:36:38;100959.72;;;22.39
41710;BMP280;59402;48.396;-4.472;2022-07-29T08:39:03;100958.75;;;22.40
41710;BMP280;59402;48.396;-4.472;2022-07-29T08:41:29;100964.75;;;22.40
41710;BMP280;59402;48.396;-4.472;2022-07-29T08:43:55;100964.63;;;22.55
41710;BMP280;59402;48.396;-4.472;2022-07-29T08:46:20;100965.81;;;22.59
41710;BMP280;59402;48.396;-4.472;2022-07-29T08:48:47;100965.47;;;22.68
41710;BMP280;59402;48.396;-4.472;2022-07-29T08:51:15;100956.03;;;22.73
41710;BMP280;59402;48.396;-4.472;2022-07-29T08:53:42;100960.69;;;22.78
41710;BMP280;59402;48.396;-4.472;2022-07-29T08:56:11;100964.13;;;22.91
41710;BMP280;59402;48.396;-4.472;2022-07-29T08:58:38;100952.91;;;22.97
41710;BMP280;59402;48.396;-4.472;2022-07-29T09:01:04;100953.09;;;23.02
41710;BMP280;59402;48.396;-4.472;2022-07-29T09:03:31;100956.13;;;23.12
41710;BMP280;59402;48.396;-4.472;2022-07-29T09:06:01;100956.75;;;23.14
41710;BMP280;59402;48.396;-4.472;2022-07-29T09:08:27;100963.19;;;23.24
41710;BMP280;59402;48.396;-4.472;2022-07-29T09:10:54;100949.09;;;23.32
41710;BMP280;59402;48.396;-4.472;2022-07-29T09:13:21;100956.34;;;23.30
41710;BMP280;59402;48.396;-4.472;2022-07-29T09:15:48;100957.94;;;23.37
41710;BMP280;59402;48.396;-4.472;2022-07-29T09:18:40;100953.94;;;23.47
41710;BMP280;59402;48.396;-4.472;2022-07-29T09:21:07;100955.34;;;23.56
41710;BMP280;59402;48.396;-4.472;2022-07-29T09:24:10;100960.97;;;23.66
41710;BMP280;59402;48.396;-4.472;2022-07-29T09:26:41;100957.34;;;23.67
41710;BMP280;59402;48.396;-4.472;2022-07-29T09:29:18;100961.34;;;23.76
41710;BMP280;59402;48.396;-4.472;2022-07-29T09:31:45;100970.78;;;23.90
41710;BMP280;59402;48.396;-4.472;2022-07-29T09:34:11;100964.53;;;23.91
41710;BMP280;59402;48.396;-4.472;2022-07-29T09:36:43;100974.59;;;23.94
41710;BMP280;59402;48.396;-4.472;2022-07-29T09:39:09;100972.94;;;24.05
41710;BMP280;59402;48.396;-4.472;2022-07-29T09:41:50;100969.13;;;24.02
41710;BMP280;59402;48.396;-4.472;2022-07-29T09:44:20;100970.56;;;24.04
41710;BMP280;59402;48.396;-4.472;2022-07-29T09:47:04;100956.69;;;23.91
41710;BMP280;59402;48.396;-4.472;2022-07-29T09:49:33;100961.72;;;23.99
41710;BMP280;59402;48.396;-4.472;2022-07-29T09:52:09;100958.44;;;24.16
41710;BMP280;59402;48.396;-4.472;2022-07-29T09:54:37;100966.06;;;24.30
41710;BMP280;59402;48.396;-4.472;2022-07-29T09:57:07;100960.00;;;24.36
41710;BMP280;59402;48.396;-4.472;2022-07-29T09:59:34;100957.16;;;24.38
41710;BMP280;59402;48.396;-4.472;2022-07-29T10:02:00;100957.16;;;24.38
41710;BMP280;59402;48.396;-4.472;2022-07-29T10:04:40;100960.72;;;24.56
41710;BMP280;59402;48.396;-4.472;2022-07-29T10:07:06;100963.53;;;24.54
41710;BMP280;59402;48.396;-4.472;2022-07-29T10:09:32;100956.22;;;24.63
41710;BMP280;59402;48.396;-4.472;2022-07-29T10:12:12;100960.59;;;24.75
41710;BMP280;59402;48.396;-4.472;2022-07-29T10:14:41;100968.34;;;24.94
41710;BMP280;59402;48.396;-4.472;2022-07-29T10:17:08;100964.16;;;24.93
41710;BMP280;59402;48.396;-4.472;2022-07-29T10:19:36;100969.78;;;24.97
41710;BMP280;59402;48.396;-4.472;2022-07-29T10:22:06;100969.97;;;24.95
41710;BMP280;59402;48.396;-4.472;2022-07-29T10:24:32;100965.38;;;24.84
41710;BMP280;59402;48.396;-4.472;2022-07-29T10:27:00;100964.50;;;25.03
41710;BMP280;59402;48.396;-4.472;2022-07-29T10:29:27;100969.50;;;25.05
41710;BMP280;59402;48.396;-4.472;2022-07-29T10:34:44;100975.91;;;25.39
41710;BMP280;59402;48.396;-4.472;2022-07-29T10:37:28;100970.53;;;25.52
41710;BMP280;59402;48.396;-4.472;2022-07-29T10:40:10;100981.69;;;25.47
41710;BMP280;59402;48.396;-4.472;2022-07-29T10:43:07;100974.06;;;25.64
41710;BMP280;59402;48.396;-4.472;2022-07-29T10:45:39;100982.47;;;25.72
41710;BMP280;59402;48.396;-4.472;2022-07-29T10:48:05;100986.78;;;25.84
41710;BMP280;59402;48.396;-4.472;2022-07-29T10:53:22;100992.47;;;25.81
41710;BMP280;59402;48.396;-4.472;2022-07-29T10:55:49;100991.38;;;25.89
41710;BMP280;59402;48.396;-4.472;2022-07-29T10:58:20;100987.03;;;26.01
41710;BMP280;59402;48.396;-4.472;2022-07-29T11:00:47;100994.44;;;26.04
41710;BMP280;59402;48.396;-4.472;2022-07-29T11:03:45;100999.53;;;26.23
41710;BMP280;59402;48.396;-4.472;2022-07-29T11:06:11;101001.50;;;26.27
41710;BMP280;59402;48.396;-4.472;2022-07-29T11:08:37;100996.84;;;26.29
41710;BMP280;59402;48.396;-4.472;2022-07-29T11:11:32;101007.84;;;26.20
41710;BMP280;59402;48.396;-4.472;2022-07-29T11:13:57;101002.69;;;26.31
41710;BMP280;59402;48.396;-4.472;2022-07-29T11:16:23;101000.06;;;26.31
41710;BMP280;59402;48.396;-4.472;2022-07-29T11:21:44;101005.69;;;26.64
41710;BMP280;59402;48.396;-4.472;2022-07-29T11:24:26;101006.63;;;26.69
41710;BMP280;59402;48.396;-4.472;2022-07-29T11:27:18;101001.81;;;26.66
41710;BMP280;59402;48.396;-4.472;2022-07-29T11:29:52;100997.34;;;26.67
41710;BMP280;59402;48.396;-4.472;2022-07-29T11:32:18;100994.19;;;26.65
41710;BMP280;59402;48.396;-4.472;2022-07-29T11:37:31;101001.00;;;26.84
41710;BMP280;59402;48.396;-4.472;2022-07-29T11:44:59;100997.38;;;27.36
41710;BMP280;59402;48.396;-4.472;2022-07-29T11:47:32;100990.78;;;27.45
41710;BMP280;59402;48.396;-4.472;2022-07-29T11:50:00;100982.84;;;27.34
41710;BMP280;59402;48.396;-4.472;2022-07-29T11:55:10;100978.31;;;27.63
41710;BMP280;59402;48.396;-4.472;2022-07-29T11:57:36;100988.63;;;27.99
41710;BMP280;59402;48.396;-4.472;2022-07-29T12:00:05;100992.84;;;28.23
41710;BMP280;59402;48.396;-4.472;2022-07-29T12:02:42;100995.53;;;28.39
41710;BMP280;59402;48.396;-4.472;2022-07-29T12:05:09;101006.03;;;28.50
41710;BMP280;59402;48.396;-4.472;2022-07-29T12:07:36;101012.22;;;28.56
41710;BMP280;59402;48.396;-4.472;2022-07-29T12:10:03;101020.41;;;28.70
41710;BMP280;59402;48.396;-4.472;2022-07-29T12:12:29;101020.81;;;28.90
41710;BMP280;59402;48.396;-4.472;2022-07-29T12:14:54;101016.22;;;29.30
41710;BMP280;59402;48.396;-4.472;2022-07-29T12:17:31;101017.34;;;29.82
41710;BMP280;59402;48.396;-4.472;2022-07-29T12:19:59;101005.31;;;30.07
41710;BMP280;59402;48.396;-4.472;2022-07-29T12:22:26;101008.13;;;30.39
41710;BMP280;59402;48.396;-4.472;2022-07-29T12:24:53;101016.28;;;30.58
41710;BMP280;59402;48.396;-4.472;2022-07-29T12:27:18;101025.56;;;30.82
41710;BMP280;59402;48.396;-4.472;2022-07-29T12:29:44;101005.00;;;31.15
41710;BMP280;59402;48.396;-4.472;2022-07-29T12:32:09;101021.69;;;31.20
41710;BMP280;59402;48.396;-4.472;2022-07-29T12:34:35;101022.16;;;31.80
41710;BMP280;59402;48.396;-4.472;2022-07-29T12:37:01;101013.34;;;32.56
41710;BMP280;59402;48.396;-4.472;2022-07-29T12:39:27;101016.41;;;33.53
41710;BMP280;59402;48.396;-4.472;2022-07-29T12:41:53;101022.00;;;33.47
41710;BMP280;59402;48.396;-4.472;2022-07-29T12:44:19;101019.16;;;31.97
41710;BMP280;59402;48.396;-4.472;2022-07-29T12:46:44;101022.25;;;31.22
41710;BMP280;59402;48.396;-4.472;2022-07-29T12:49:21;101029.84;;;31.76
41710;BMP280;59402;48.396;-4.472;2022-07-29T12:51:47;101015.97;;;31.95
41710;BMP280;59402;48.396;-4.472;2022-07-29T12:54:14;101014.66;;;32.63
41710;BMP280;59402;48.396;-4.472;2022-07-29T12:56:41;101014.81;;;33.52
41710;BMP280;59402;48.396;-4.472;2022-07-29T12:59:18;101007.09;;;33.65
41710;BMP280;59402;48.396;-4.472;2022-07-29T13:01:45;101008.44;;;33.53
41710;BMP280;59402;48.396;-4.472;2022-07-29T13:04:24;101010.81;;;33.79
41710;BMP280;59402;48.396;-4.472;2022-07-29T13:06:58;101013.44;;;33.94
41710;BMP280;59402;48.396;-4.472;2022-07-29T13:09:42;101021.97;;;34.59
41710;BMP280;59402;48.396;-4.472;2022-07-29T13:12:10;101013.06;;;34.30
41710;BMP280;59402;48.396;-4.472;2022-07-29T13:14:41;101022.47;;;33.73
41710;BMP280;59402;48.396;-4.472;2022-07-29T13:17:10;101020.56;;;34.08
41710;BMP280;59402;48.396;-4.472;2022-07-29T13:22:11;101039.88;;;35.29
41710;BMP280;59402;48.396;-4.472;2022-07-29T13:24:50;101027.69;;;35.18
41710;BMP280;59402;48.396;-4.472;2022-07-29T13:27:21;101035.03;;;35.69
41710;BMP280;59402;48.396;-4.472;2022-07-29T13:29:47;101040.44;;;36.10
41710;BMP280;59402;48.396;-4.472;2022-07-29T13:32:14;101054.69;;;35.73
41710;BMP280;59402;48.396;-4.472;2022-07-29T13:34:39;101043.38;;;36.09
41710;BMP280;59402;48.396;-4.472;2022-07-29T13:37:06;101042.13;;;36.48
41710;BMP280;59402;48.396;-4.472;2022-07-29T13:39:31;101055.72;;;36.28
41710;BMP280;59402;48.396;-4.472;2022-07-29T13:41:57;101049.69;;;36.41
41710;BMP280;59402;48.396;-4.472;2022-07-29T13:44:22;101045.50;;;36.53
41710;BMP280;59402;48.396;-4.472;2022-07-29T13:46:48;101043.91;;;36.76
41710;BMP280;59402;48.396;-4.472;2022-07-29T13:49:13;101040.19;;;36.53
41710;BMP280;59402;48.396;-4.472;2022-07-29T13:51:39;101044.72;;;36.35
41710;BMP280;59402;48.396;-4.472;2022-07-29T13:54:04;101054.53;;;36.39
41710;BMP280;59402;48.396;-4.472;2022-07-29T13:56:30;101051.28;;;36.19
41710;BMP280;59402;48.396;-4.472;2022-07-29T13:58:55;101057.41;;;36.19
41710;BMP280;59402;48.396;-4.472;2022-07-29T14:01:22;101054.88;;;35.81
41710;BMP280;59402;48.396;-4.472;2022-07-29T14:03:48;101055.81;;;35.67
41710;BMP280;59402;48.396;-4.472;2022-07-29T14:06:14;101057.44;;;35.91
41710;BMP280;59402;48.396;-4.472;2022-07-29T14:08:39;101066.88;;;36.30
41710;BMP280;59402;48.396;-4.472;2022-07-29T14:11:05;101059.72;;;35.46
41710;BMP280;59402;48.396;-4.472;2022-07-29T14:13:31;101063.25;;;35.70
41710;BMP280;59402;48.396;-4.472;2022-07-29T14:15:56;101065.00;;;36.08
41710;BMP280;59402;48.396;-4.472;2022-07-29T14:18:22;101056.78;;;34.57
41710;BMP280;59402;48.396;-4.472;2022-07-29T14:20:47;101051.22;;;34.59
41710;BMP280;59402;48.396;-4.472;2022-07-29T14:23:13;101055.41;;;35.50
41710;BMP280;59402;48.396;-4.472;2022-07-29T14:25:39;101057.13;;;35.65